Flugplatz Schameder (EDGQ)

Hier findest Du alle Informationen zum Flugplatz Schameder (EDGQ).

Informationen für Piloten zum Flugplatz Schameder

Hier findest Du alle relevanten Informationen, die Du als Pilot benötigst, um Schameder anzufliegen.

Flugplatz: Schameder ICAO-Code: EDGQ
Frequenz Turm: 122,025 Mhz GAFOR Gebiet: 36
Frequenz Ground: 122,025 Mhz Mogas: ja
Platzrunde: N 0 ft Landegebühr: -
Platzhöhe: - Sunrise: 03:14 Uhr UTC
Pisten: 10/28 - 750 m x 30 m, GRAS Sunset: 19:46 Uhr UTC

Mitglieder, die in Schameder fliegen

Flugwetter am Flugplatz Schameder

Die METAR Information stammen aus EDGS (36.10 km entfernt).

METAR Code:
2022/05/29 06:50
EDGS 290650Z 31008KT 270V360 9999 SCT010 BKN014 06/04 Q1014

Flugschulen am Flugplatz Schameder

Am Flugplatz Schameder gibt es leider keine Flugschule.

Benachbarte Flugplätze und Flugschulen

Es gibt 19 weitere Flugplätze in einem Umkreis von 50 km um den Flugplatz Schameder.

Jetzt anmelden

Passwort vergessen

Umfrage Archiv

Sendet Ihr ADS-B und/oder FLARM?

Ja
83.1 %
Nein
16.9 %
Stimmen: 177 | Diskussion
Anzeige: Roland Aircraft
Statistik Alle Mitglieder

Aktuell sind 61 Besucher online, davon 3 Mitglieder und 58 Gäste.


Mitglieder online:
Moskito_Andi  StevenOS  raller 

Anzeige: ULPower Aero Engines Anzeige: Pocket FMS